Flight Track Log - Related Links

Times and Time Zones

All times are in EDT time to prevent confusion due to time zone crossing. See the EJA646 flight status page for this flight to view local times or setup timezone preferences in your user account.


Time Position Orientation Groundspeed Altitude Reporting Facility
EDT Latitude Longitude Course Direction KTS MPH feet Rate Location/Type
Tue 09:11:21 AM 29.6164 -95.6567 176° South 170 196 800  Level Houston Center
Tue 09:12:16 AM 29.5783 -95.6539 176° South 166 191 2,300 2,538 Climbing Houston Center
Tue 09:13:05 AM 29.5525 -95.6233 134° Southeast 201 231 5,200 3,025 Climbing Houston Center
Tue 09:14:17 AM 29.6108 -95.5883 28° Northeast 256 295 8,400 2,866 Climbing Houston Center
Tue 09:15:19 AM 29.6878 -95.5772 North 275 316 11,600 3,242 Climbing Houston Center
Tue 09:16:21 AM 29.7800 -95.5658 North 276 318 15,100 2,661 Climbing Houston Center
Tue 09:17:23 AM 29.8653 -95.5556 North 296 341 17,100 1,935 Climbing Houston Center
Tue 09:18:25 AM 29.9608 -95.5431 North 332 382 19,100 1,887 Climbing Houston Center
Tue 09:19:27 AM 30.0619 -95.5294 North 355 409 21,000 1,790 Climbing Houston Center
Tue 09:20:29 AM 30.1656 -95.5161 North 368 423 22,800 1,452 Climbing Houston Center
Tue 09:21:31 AM 30.2700 -95.5022 North 374 430 24,000 581 Climbing Houston Center
Tue 09:22:33 AM 30.3839 -95.4864 North 403 464 24,000  Level Houston Center
Tue 09:23:35 AM 30.5256 -95.4736 North 420 483 24,000  Level Houston Center
Tue 09:24:36 AM 30.6367 -95.4986 349° North 405 466 24,000  Level Houston Center
Tue 09:25:38 AM 30.7392 -95.5219 349° North 408 470 24,000  Level Houston Center
Tue 09:26:40 AM 30.8733 -95.5519 349° North 403 464 24,000  Level Houston Center
Tue 09:27:42 AM 30.9850 -95.5781 349° North 405 466 24,000  Level Houston Center
Tue 09:28:44 AM 31.0961 -95.6019 350° North 405 466 24,000  Level Houston Center
Tue 09:29:46 AM 31.2069 -95.6272 349° North 403 464 24,000  Level Houston Center
Tue 09:30:48 AM 31.3119 -95.6675 342° North 393 452 24,000  Level Houston Center
Tue 09:31:50 AM 31.3983 -95.7456 322° Northwest 390 449 24,000  Level Houston Center
Tue 09:32:52 AM 31.4828 -95.8244 321° Northwest 389 448 24,000 -339 Level Houston Center
Tue 09:33:54 AM 31.5850 -95.9194 322° Northwest 388 447 23,300 -1,210 Descending Houston Center
Tue 09:34:56 AM 31.6747 -96.0031 322° Northwest 406 467 21,500 -1,742 Descending Houston Center
Tue 09:35:58 AM 31.7600 -96.0839 321° Northwest 397 457 19,700 -1,900 Descending Houston Center
Tue 09:36:56 AM 31.8481 -96.1686 321° Northwest 398 458 17,700 -2,441 Descending Fort Worth Center
Tue 09:37:56 AM 31.9261 -96.2433 321° Northwest 381 438 14,900 -2,200 Descending Fort Worth Center
Tue 09:38:56 AM 31.9914 -96.3061 321° Northwest 354 407 13,300 -1,750 Descending Fort Worth Center
Tue 09:39:56 AM 32.0692 -96.3811 321° Northwest 354 407 11,400 -1,800 Descending Fort Worth Center
Tue 09:40:56 AM 32.1386 -96.4467 321° Northwest 348 400 9,700 -1,200 Descending Fort Worth Center
Tue 09:41:56 AM 32.2017 -96.5050 322° Northwest 317 365 9,000 -350 Descending Fort Worth Center
Tue 09:42:56 AM 32.2647 -96.5633 322° Northwest 293 337 9,000  Level Fort Worth Center
Tue 09:43:56 AM 32.3319 -96.6317 319° Northwest 293 337 9,000  Level Fort Worth Center
Tue 09:44:56 AM 32.3950 -96.6803 327° Northwest 293 337 9,000 -450 Level Fort Worth Center
Tue 09:45:56 AM 32.4869 -96.7064 347° North 293 337 8,100 -1,500 Descending Fort Worth Center
Tue 09:46:56 AM 32.5372 -96.7556 321° Northwest 259 298 6,000 -2,000 Descending Fort Worth Center
Tue 09:47:56 AM 32.5461 -96.8467 277° West 245 282 4,100 -1,000 Descending Fort Worth Center
Tue 09:48:56 AM 32.5464 -96.9253 270° West 240 276 4,000 -50 Descending Fort Worth Center
Tue 09:49:56 AM 32.5572 -96.9919 281° West 232 267 4,000 -50 Level Fort Worth Center
Tue 09:50:56 AM 32.6011 -97.0706 304° West 247 284 3,900 -500 Descending Fort Worth Center
Tue 09:51:56 AM 32.6347 -97.1297 304° West 253 291 3,000 -450 Descending Fort Worth Center
Tue 09:52:56 AM 32.6850 -97.1911 314° West 243 280 3,000  Level Fort Worth Center
Tue 09:53:56 AM 32.7350 -97.2406 320° Northwest 243 280 3,000  Level Fort Worth Center
Tue 09:54:56 AM 32.7289 -97.2950 262° West 156 180 3,000 -313 Level Fort Worth Center
Tue 09:57:27 AM 32.6333 -97.3000 183° South 125 144 1,900 -483 Descending Dallas / Fort Worth TRACON
Tue 09:58:27 AM 32.6000 -97.3000 180° South 125 144 1,300 -600 Descending Dallas / Fort Worth TRACON
Tue 10:00:00 AM 32.5652 -97.3081 216° Southwest  Level Estimated

Login

Don't have an account? Register now (free) for customized features, flight alerts, and more!